sensor_id;sensor_type;location;lat;lon;timestamp;pressure;altitude;pressure_sealevel;temperature;humidity
54882;BME280;40775;51.448;4.742;2023-04-08T00:00:48;102222.16;;;9.66;100.00
54882;BME280;40775;51.448;4.742;2023-04-08T00:03:15;102223.75;;;9.63;100.00
54882;BME280;40775;51.448;4.742;2023-04-08T00:05:42;102221.13;;;9.63;100.00
54882;BME280;40775;51.448;4.742;2023-04-08T00:08:09;102227.41;;;9.66;100.00
54882;BME280;40775;51.448;4.742;2023-04-08T00:10:36;102232.66;;;9.66;100.00
54882;BME280;40775;51.448;4.742;2023-04-08T00:13:03;102228.09;;;9.62;100.00
54882;BME280;40775;51.448;4.742;2023-04-08T00:15:30;102232.50;;;9.63;100.00
54882;BME280;40775;51.448;4.742;2023-04-08T00:17:57;102230.66;;;9.60;100.00
54882;BME280;40775;51.448;4.742;2023-04-08T00:20:24;102220.22;;;9.62;100.00
54882;BME280;40775;51.448;4.742;2023-04-08T00:22:51;102221.94;;;9.62;100.00
54882;BME280;40775;51.448;4.742;2023-04-08T00:25:18;102220.16;;;9.60;100.00
54882;BME280;40775;51.448;4.742;2023-04-08T00:27:46;102225.41;;;9.60;100.00
54882;BME280;40775;51.448;4.742;2023-04-08T00:30:13;102213.91;;;9.58;100.00
54882;BME280;40775;51.448;4.742;2023-04-08T00:32:41;102222.78;;;9.60;100.00
54882;BME280;40775;51.448;4.742;2023-04-08T00:35:08;102221.00;;;9.59;100.00
54882;BME280;40775;51.448;4.742;2023-04-08T00:37:35;102223.44;;;9.56;100.00
54882;BME280;40775;51.448;4.742;2023-04-08T00:40:03;102219.25;;;9.60;100.00
54882;BME280;40775;51.448;4.742;2023-04-08T00:42:30;102225.34;;;9.59;100.00
54882;BME280;40775;51.448;4.742;2023-04-08T00:44:57;102230.47;;;9.57;100.00
54882;BME280;40775;51.448;4.742;2023-04-08T00:47:24;102226.88;;;9.55;100.00
54882;BME280;40775;51.448;4.742;2023-04-08T00:49:51;102231.47;;;9.59;100.00
54882;BME280;40775;51.448;4.742;2023-04-08T00:52:19;102227.78;;;9.56;100.00
54882;BME280;40775;51.448;4.742;2023-04-08T00:54:46;102229.50;;;9.55;100.00
54882;BME280;40775;51.448;4.742;2023-04-08T00:57:13;102232.97;;;9.54;100.00
54882;BME280;40775;51.448;4.742;2023-04-08T00:59:40;102237.44;;;9.57;100.00
54882;BME280;40775;51.448;4.742;2023-04-08T01:05:55;102240.13;;;9.58;100.00
54882;BME280;40775;51.448;4.742;2023-04-08T01:08:26;102240.13;;;9.58;100.00
54882;BME280;40775;51.448;4.742;2023-04-08T01:10:59;102238.34;;;9.57;100.00
54882;BME280;40775;51.448;4.742;2023-04-08T01:13:32;102240.06;;;9.57;100.00
54882;BME280;40775;51.448;4.742;2023-04-08T01:16:01;102239.16;;;9.56;100.00
54882;BME280;40775;51.448;4.742;2023-04-08T01:18:28;102239.25;;;9.58;100.00
54882;BME280;40775;51.448;4.742;2023-04-08T01:20:57;102247.72;;;9.52;100.00
54882;BME280;40775;51.448;4.742;2023-04-08T01:24:00;102240.69;;;9.51;100.00
54882;BME280;40775;51.448;4.742;2023-04-08T01:26:31;102246.81;;;9.52;100.00
54882;BME280;40775;51.448;4.742;2023-04-08T01:29:01;102249.38;;;9.50;100.00
54882;BME280;40775;51.448;4.742;2023-04-08T01:31:29;102244.19;;;9.52;100.00
54882;BME280;40775;51.448;4.742;2023-04-08T01:33:59;102243.44;;;9.54;100.00
54882;BME280;40775;51.448;4.742;2023-04-08T01:36:28;102250.47;;;9.55;100.00
54882;BME280;40775;51.448;4.742;2023-04-08T01:39:00;102255.78;;;9.57;100.00
54882;BME280;40775;51.448;4.742;2023-04-08T01:41:29;102260.00;;;9.53;100.00
54882;BME280;40775;51.448;4.742;2023-04-08T01:43:57;102252.97;;;9.52;100.00
54882;BME280;40775;51.448;4.742;2023-04-08T01:46:25;102252.13;;;9.53;100.00
54882;BME280;40775;51.448;4.742;2023-04-08T01:48:54;102261.72;;;9.53;100.00
54882;BME280;40775;51.448;4.742;2023-04-08T01:51:21;102257.31;;;9.52;100.00
54882;BME280;40775;51.448;4.742;2023-04-08T01:53:49;102250.34;;;9.52;100.00
54882;BME280;40775;51.448;4.742;2023-04-08T01:56:16;102257.31;;;9.52;100.00
54882;BME280;40775;51.448;4.742;2023-04-08T01:58:49;102251.25;;;9.53;100.00
54882;BME280;40775;51.448;4.742;2023-04-08T02:01:21;102256.41;;;9.51;100.00
54882;BME280;40775;51.448;4.742;2023-04-08T02:03:50;102263.44;;;9.52;100.00
54882;BME280;40775;51.448;4.742;2023-04-08T02:06:19;102258.19;;;9.52;100.00
54882;BME280;40775;51.448;4.742;2023-04-08T02:08:46;102259.09;;;9.53;100.00
54882;BME280;40775;51.448;4.742;2023-04-08T02:11:13;102255.59;;;9.52;100.00
54882;BME280;40775;51.448;4.742;2023-04-08T02:13:40;102262.63;;;9.53;100.00
54882;BME280;40775;51.448;4.742;2023-04-08T02:19:34;102263.59;;;9.55;100.00
54882;BME280;40775;51.448;4.742;2023-04-08T02:22:06;102255.78;;;9.57;100.00
54882;BME280;40775;51.448;4.742;2023-04-08T02:24:36;102256.56;;;9.54;100.00
54882;BME280;40775;51.448;4.742;2023-04-08T02:27:04;102256.56;;;9.54;100.00
54882;BME280;40775;51.448;4.742;2023-04-08T02:29:36;102261.09;;;9.58;100.00
54882;BME280;40775;51.448;4.742;2023-04-08T02:32:05;102257.44;;;9.55;100.00
54882;BME280;40775;51.448;4.742;2023-04-08T02:34:34;102264.41;;;9.54;100.00
54882;BME280;40775;51.448;4.742;2023-04-08T02:37:01;102253.09;;;9.55;100.00
54882;BME280;40775;51.448;4.742;2023-04-08T02:39:32;102263.66;;;9.57;100.00
54882;BME280;40775;51.448;4.742;2023-04-08T02:41:59;102271.47;;;9.55;100.00
54882;BME280;40775;51.448;4.742;2023-04-08T02:44:26;102263.59;;;9.55;100.00
54882;BME280;40775;51.448;4.742;2023-04-08T02:46:53;102272.41;;;9.57;100.00
54882;BME280;40775;51.448;4.742;2023-04-08T02:49:20;102270.69;;;9.58;100.00
54882;BME280;40775;51.448;4.742;2023-04-08T02:51:47;102266.22;;;9.55;100.00
54882;BME280;40775;51.448;4.742;2023-04-08T02:54:14;102269.91;;;9.59;100.00
54882;BME280;40775;51.448;4.742;2023-04-08T02:56:41;102268.19;;;9.59;100.00
54882;BME280;40775;51.448;4.742;2023-04-08T02:59:08;102272.34;;;9.56;100.00
54882;BME280;40775;51.448;4.742;2023-04-08T03:01:35;102274.91;;;9.54;100.00
54882;BME280;40775;51.448;4.742;2023-04-08T03:04:03;102272.28;;;9.54;100.00
54882;BME280;40775;51.448;4.742;2023-04-08T03:06:30;102270.50;;;9.53;100.00
54882;BME280;40775;51.448;4.742;2023-04-08T03:08:58;102273.09;;;9.53;100.00
54882;BME280;40775;51.448;4.742;2023-04-08T03:11:24;102278.50;;;9.56;100.00
54882;BME280;40775;51.448;4.742;2023-04-08T03:13:52;102278.41;;;9.55;100.00
54882;BME280;40775;51.448;4.742;2023-04-08T03:16:19;102281.03;;;9.55;100.00
54882;BME280;40775;51.448;4.742;2023-04-08T03:18:46;102280.91;;;9.52;100.00
54882;BME280;40775;51.448;4.742;2023-04-08T03:21:15;102278.22;;;9.50;100.00
54882;BME280;40775;51.448;4.742;2023-04-08T03:23:43;102283.53;;;9.52;100.00
54882;BME280;40775;51.448;4.742;2023-04-08T03:26:10;102279.09;;;9.51;100.00
54882;BME280;40775;51.448;4.742;2023-04-08T03:28:37;102276.50;;;9.51;100.00
54882;BME280;40775;51.448;4.742;2023-04-08T03:31:05;102278.22;;;9.50;100.00
54882;BME280;40775;51.448;4.742;2023-04-08T03:33:32;102289.59;;;9.51;100.00
54882;BME280;40775;51.448;4.742;2023-04-08T03:35:59;102286.16;;;9.52;100.00
54882;BME280;40775;51.448;4.742;2023-04-08T03:38:26;102293.13;;;9.51;100.00
54882;BME280;40775;51.448;4.742;2023-04-08T03:40:53;102284.41;;;9.52;100.00
54882;BME280;40775;51.448;4.742;2023-04-08T03:43:20;102286.97;;;9.51;100.00
54882;BME280;40775;51.448;4.742;2023-04-08T03:45:47;102292.22;;;9.51;100.00
54882;BME280;40775;51.448;4.742;2023-04-08T03:48:14;102296.63;;;9.52;100.00
54882;BME280;40775;51.448;4.742;2023-04-08T03:50:41;102289.75;;;9.54;100.00
54882;BME280;40775;51.448;4.742;2023-04-08T03:53:08;102299.31;;;9.53;100.00
54882;BME280;40775;51.448;4.742;2023-04-08T03:55:38;102295.72;;;9.51;100.00
54882;BME280;40775;51.448;4.742;2023-04-08T03:58:06;102294.84;;;9.51;100.00
54882;BME280;40775;51.448;4.742;2023-04-08T04:00:34;102302.69;;;9.51;100.00
54882;BME280;40775;51.448;4.742;2023-04-08T04:03:01;102298.34;;;9.51;100.00
54882;BME280;40775;51.448;4.742;2023-04-08T04:05:29;102304.44;;;9.50;100.00
54882;BME280;40775;51.448;4.742;2023-04-08T04:07:56;102308.84;;;9.51;100.00
54882;BME280;40775;51.448;4.742;2023-04-08T04:10:24;102298.28;;;9.50;100.00
54882;BME280;40775;51.448;4.742;2023-04-08T04:12:51;102299.19;;;9.50;100.00
54882;BME280;40775;51.448;4.742;2023-04-08T04:15:18;102298.28;;;9.50;100.00
54882;BME280;40775;51.448;4.742;2023-04-08T04:17:48;102302.69;;;9.51;100.00
54882;BME280;40775;51.448;4.742;2023-04-08T04:20:17;102297.25;;;9.46;100.00
54882;BME280;40775;51.448;4.742;2023-04-08T04:22:44;102305.19;;;9.48;100.00
54882;BME280;40775;51.448;4.742;2023-04-08T04:25:11;102304.28;;;9.47;100.00
54882;BME280;40775;51.448;4.742;2023-04-08T04:27:38;102307.72;;;9.46;100.00
54882;BME280;40775;51.448;4.742;2023-04-08T04:30:06;102319.03;;;9.45;100.00
54882;BME280;40775;51.448;4.742;2023-04-08T04:32:35;102316.41;;;9.45;100.00
54882;BME280;40775;51.448;4.742;2023-04-08T04:35:02;102321.66;;;9.45;100.00
54882;BME280;40775;51.448;4.742;2023-04-08T04:37:30;102320.91;;;9.48;100.00
54882;BME280;40775;51.448;4.742;2023-04-08T04:39:57;102311.19;;;9.45;100.00
54882;BME280;40775;51.448;4.742;2023-04-08T04:42:24;102322.50;;;9.44;100.00
54882;BME280;40775;51.448;4.742;2023-04-08T04:44:52;102329.59;;;9.47;100.00
54882;BME280;40775;51.448;4.742;2023-04-08T04:47:20;102328.56;;;9.43;100.00
54882;BME280;40775;51.448;4.742;2023-04-08T04:49:47;102325.94;;;9.43;100.00
54882;BME280;40775;51.448;4.742;2023-04-08T04:52:14;102330.34;;;9.44;100.00
54882;BME280;40775;51.448;4.742;2023-04-08T04:54:42;102325.09;;;9.44;100.00
54882;BME280;40775;51.448;4.742;2023-04-08T04:57:09;102326.84;;;9.44;100.00
54882;BME280;40775;51.448;4.742;2023-04-08T04:59:37;102327.66;;;9.43;100.00
54882;BME280;40775;51.448;4.742;2023-04-08T05:02:04;102326.75;;;9.42;100.00
54882;BME280;40775;51.448;4.742;2023-04-08T05:04:32;102329.38;;;9.42;100.00
54882;BME280;40775;51.448;4.742;2023-04-08T05:06:59;102320.53;;;9.40;100.00
54882;BME280;40775;51.448;4.742;2023-04-08T05:09:28;102324.00;;;9.39;100.00
54882;BME280;40775;51.448;4.742;2023-04-08T05:11:55;102317.03;;;9.40;100.00
54882;BME280;40775;51.448;4.742;2023-04-08T05:14:23;102322.28;;;9.40;100.00
54882;BME280;40775;51.448;4.742;2023-04-08T05:16:50;102317.84;;;9.39;100.00
54882;BME280;40775;51.448;4.742;2023-04-08T05:19:19;102325.66;;;9.37;100.00
54882;BME280;40775;51.448;4.742;2023-04-08T05:21:47;102323.78;;;9.35;100.00
54882;BME280;40775;51.448;4.742;2023-04-08T05:24:14;102332.75;;;9.40;100.00
54882;BME280;40775;51.448;4.742;2023-04-08T05:26:42;102331.72;;;9.36;100.00
54882;BME280;40775;51.448;4.742;2023-04-08T05:29:09;102342.19;;;9.36;100.00
54882;BME280;40775;51.448;4.742;2023-04-08T05:31:37;102334.25;;;9.35;100.00
54882;BME280;40775;51.448;4.742;2023-04-08T05:34:05;102340.47;;;9.37;100.00
54882;BME280;40775;51.448;4.742;2023-04-08T05:36:32;102337.63;;;9.32;100.00
54882;BME280;40775;51.448;4.742;2023-04-08T05:38:59;102339.44;;;9.33;100.00
54882;BME280;40775;51.448;4.742;2023-04-08T05:41:29;102336.81;;;9.33;100.00
54882;BME280;40775;51.448;4.742;2023-04-08T05:44:01;102348.13;;;9.32;100.00
54882;BME280;40775;51.448;4.742;2023-04-08T05:46:28;102349.91;;;9.33;100.00
54882;BME280;40775;51.448;4.742;2023-04-08T05:48:55;102351.44;;;9.29;100.00
54882;BME280;40775;51.448;4.742;2023-04-08T05:51:23;102352.19;;;9.27;100.00
54882;BME280;40775;51.448;4.742;2023-04-08T05:53:50;102354.00;;;9.28;100.00
54882;BME280;40775;51.448;4.742;2023-04-08T05:56:17;102355.78;;;9.29;100.00
54882;BME280;40775;51.448;4.742;2023-04-08T05:58:44;102363.72;;;9.30;100.00
54882;BME280;40775;51.448;4.742;2023-04-08T06:01:12;102365.63;;;9.33;100.00
54882;BME280;40775;51.448;4.742;2023-04-08T06:03:42;102370.81;;;9.32;100.00
54882;BME280;40775;51.448;4.742;2023-04-08T06:06:10;102371.59;;;9.30;100.00
54882;BME280;40775;51.448;4.742;2023-04-08T06:08:37;102382.00;;;9.29;100.00
54882;BME280;40775;51.448;4.742;2023-04-08T06:11:04;102375.28;;;9.34;100.00
54882;BME280;40775;51.448;4.742;2023-04-08T06:13:32;102377.31;;;9.40;100.00
54882;BME280;40775;51.448;4.742;2023-04-08T06:16:17;102379.41;;;9.47;100.00
54882;BME280;40775;51.448;4.742;2023-04-08T06:18:47;102387.34;;;9.48;100.00
54882;BME280;40775;51.448;4.742;2023-04-08T06:21:15;102383.00;;;9.49;100.00
54882;BME280;40775;51.448;4.742;2023-04-08T06:23:42;102391.91;;;9.52;100.00
54882;BME280;40775;51.448;4.742;2023-04-08T06:26:10;102388.59;;;9.56;100.00
54882;BME280;40775;51.448;4.742;2023-04-08T06:28:39;102393.84;;;9.56;100.00
54882;BME280;40775;51.448;4.742;2023-04-08T06:31:06;102395.44;;;9.53;100.00
54882;BME280;40775;51.448;4.742;2023-04-08T06:33:33;102396.66;;;9.59;100.00
54882;BME280;40775;51.448;4.742;2023-04-08T06:36:05;102404.59;;;9.61;100.00
54882;BME280;40775;51.448;4.742;2023-04-08T06:38:33;102411.72;;;9.64;100.00
54882;BME280;40775;51.448;4.742;2023-04-08T06:41:07;102411.03;;;9.68;100.00
54882;BME280;40775;51.448;4.742;2023-04-08T06:43:34;102419.03;;;9.71;100.00
54882;BME280;40775;51.448;4.742;2023-04-08T06:46:06;102419.03;;;9.71;100.00
54882;BME280;40775;51.448;4.742;2023-04-08T06:48:33;102429.75;;;9.75;100.00
54882;BME280;40775;51.448;4.742;2023-04-08T06:51:00;102422.94;;;9.79;100.00
54882;BME280;40775;51.448;4.742;2023-04-08T06:53:27;102424.44;;;9.74;100.00
54882;BME280;40775;51.448;4.742;2023-04-08T06:55:59;102427.34;;;9.80;100.00
54882;BME280;40775;51.448;4.742;2023-04-08T06:58:26;102423.97;;;9.82;100.00
54882;BME280;40775;51.448;4.742;2023-04-08T07:00:53;102422.09;;;9.80;100.00
54882;BME280;40775;51.448;4.742;2023-04-08T07:03:23;102425.03;;;9.86;100.00
54882;BME280;40775;51.448;4.742;2023-04-08T07:05:54;102429.47;;;9.87;100.00
54882;BME280;40775;51.448;4.742;2023-04-08T07:08:21;102433.13;;;9.90;100.00
54882;BME280;40775;51.448;4.742;2023-04-08T07:10:48;102428.78;;;9.91;100.00
54882;BME280;40775;51.448;4.742;2023-04-08T07:13:17;102439.44;;;9.94;100.00
54882;BME280;40775;51.448;4.742;2023-04-08T07:15:44;102441.16;;;9.94;100.00
54882;BME280;40775;51.448;4.742;2023-04-08T07:18:11;102441.97;;;9.93;100.00
54882;BME280;40775;51.448;4.742;2023-04-08T07:20:39;102450.06;;;9.97;100.00
54882;BME280;40775;51.448;4.742;2023-04-08T07:23:07;102445.66;;;9.96;100.00
54882;BME280;40775;51.448;4.742;2023-04-08T07:25:35;102451.88;;;9.98;100.00
54882;BME280;40775;51.448;4.742;2023-04-08T07:28:02;102449.47;;;10.03;100.00
54882;BME280;40775;51.448;4.742;2023-04-08T07:30:29;102453.59;;;9.98;100.00
54882;BME280;40775;51.448;4.742;2023-04-08T07:32:56;102460.72;;;10.00;100.00
54882;BME280;40775;51.448;4.742;2023-04-08T07:35:27;102453.88;;;10.04;100.00
54882;BME280;40775;51.448;4.742;2023-04-08T07:37:54;102459.28;;;10.07;100.00
54882;BME280;40775;51.448;4.742;2023-04-08T07:40:23;102459.19;;;10.05;100.00
54882;BME280;40775;51.448;4.742;2023-04-08T07:42:50;102462.19;;;10.13;100.00
54882;BME280;40775;51.448;4.742;2023-04-08T07:45:17;102469.16;;;10.12;100.00
54882;BME280;40775;51.448;4.742;2023-04-08T07:47:44;102465.81;;;10.15;100.00
54882;BME280;40775;51.448;4.742;2023-04-08T07:50:12;102468.50;;;10.16;100.00
54882;BME280;40775;51.448;4.742;2023-04-08T07:52:39;102474.78;;;10.20;100.00
54882;BME280;40775;51.448;4.742;2023-04-08T07:55:07;102477.75;;;10.26;100.00
54882;BME280;40775;51.448;4.742;2023-04-08T07:57:34;102477.66;;;10.25;100.00
54882;BME280;40775;51.448;4.742;2023-04-08T08:00:02;102470.69;;;10.25;100.00
54882;BME280;40775;51.448;4.742;2023-04-08T08:02:30;102471.88;;;10.32;100.00
54882;BME280;40775;51.448;4.742;2023-04-08T08:04:57;102478.94;;;10.33;100.00
54882;BME280;40775;51.448;4.742;2023-04-08T08:07:26;102480.56;;;10.31;100.00
54882;BME280;40775;51.448;4.742;2023-04-08T08:09:53;102477.19;;;10.33;100.00
54882;BME280;40775;51.448;4.742;2023-04-08T08:12:20;102481.56;;;10.33;100.00
54882;BME280;40775;51.448;4.742;2023-04-08T08:14:47;102487.09;;;10.39;100.00
54882;BME280;40775;51.448;4.742;2023-04-08T08:17:14;102484.16;;;10.50;100.00
54882;BME280;40775;51.448;4.742;2023-04-08T08:19:41;102487.00;;;10.55;100.00
54882;BME280;40775;51.448;4.742;2023-04-08T08:22:10;102490.50;;;10.56;100.00
54882;BME280;40775;51.448;4.742;2023-04-08T08:24:37;102488.78;;;10.56;100.00
54882;BME280;40775;51.448;4.742;2023-04-08T08:27:05;102494.03;;;10.56;100.00
54882;BME280;40775;51.448;4.742;2023-04-08T08:29:32;102492.31;;;10.57;100.00
54882;BME280;40775;51.448;4.742;2023-04-08T08:31:59;102492.44;;;10.60;100.00
54882;BME280;40775;51.448;4.742;2023-04-08T08:34:26;102493.34;;;10.60;100.00
54882;BME280;40775;51.448;4.742;2023-04-08T08:36:53;102493.31;;;10.78;100.00
54882;BME280;40775;51.448;4.742;2023-04-08T08:39:20;102496.00;;;10.79;100.00
54882;BME280;40775;51.448;4.742;2023-04-08T08:41:47;102499.25;;;10.93;100.00
54882;BME280;40775;51.448;4.742;2023-04-08T08:44:14;102506.78;;;10.86;100.00
54882;BME280;40775;51.448;4.742;2023-04-08T08:46:46;102506.41;;;10.96;100.00
54882;BME280;40775;51.448;4.742;2023-04-08T08:49:14;102503.84;;;10.97;100.00
54882;BME280;40775;51.448;4.742;2023-04-08T08:51:41;102504.03;;;11.02;100.00
54882;BME280;40775;51.448;4.742;2023-04-08T08:54:11;102510.13;;;11.01;100.00
54882;BME280;40775;51.448;4.742;2023-04-08T08:56:38;102510.59;;;11.11;100.00
54882;BME280;40775;51.448;4.742;2023-04-08T08:59:06;102507.75;;;11.07;100.00
54882;BME280;40775;51.448;4.742;2023-04-08T09:01:38;102506.44;;;11.17;100.00
54882;BME280;40775;51.448;4.742;2023-04-08T09:04:18;102509.13;;;11.37;100.00
54882;BME280;40775;51.448;4.742;2023-04-08T09:06:49;102503.34;;;11.25;100.00
54882;BME280;40775;51.448;4.742;2023-04-08T09:09:17;102508.94;;;11.33;100.00
54882;BME280;40775;51.448;4.742;2023-04-08T09:11:46;102512.91;;;11.44;100.00
54882;BME280;40775;51.448;4.742;2023-04-08T09:14:23;102506.63;;;11.40;100.00
54882;BME280;40775;51.448;4.742;2023-04-08T09:16:51;102510.63;;;11.52;100.00
54882;BME280;40775;51.448;4.742;2023-04-08T09:19:18;102514.50;;;11.40;100.00
54882;BME280;40775;51.448;4.742;2023-04-08T09:22:08;102502.75;;;11.52;100.00
54882;BME280;40775;51.448;4.742;2023-04-08T09:24:36;102504.66;;;11.56;100.00
54882;BME280;40775;51.448;4.742;2023-04-08T09:27:04;102509.41;;;11.64;100.00
54882;BME280;40775;51.448;4.742;2023-04-08T09:29:32;102516.06;;;11.77;100.00
54882;BME280;40775;51.448;4.742;2023-04-08T09:32:05;102515.94;;;11.74;100.00
54882;BME280;40775;51.448;4.742;2023-04-08T09:34:32;102502.41;;;11.84;100.00
54882;BME280;40775;51.448;4.742;2023-04-08T09:37:00;102512.69;;;11.78;100.00
54882;BME280;40775;51.448;4.742;2023-04-08T09:39:27;102506.41;;;11.97;100.00
54882;BME280;40775;51.448;4.742;2023-04-08T09:41:57;102513.66;;;12.02;100.00
54882;BME280;40775;51.448;4.742;2023-04-08T09:44:28;102507.06;;;12.12;100.00
54882;BME280;40775;51.448;4.742;2023-04-08T09:47:05;102507.56;;;12.03;100.00
54882;BME280;40775;51.448;4.742;2023-04-08T09:49:50;102508.69;;;12.31;100.00
54882;BME280;40775;51.448;4.742;2023-04-08T09:52:29;102508.47;;;12.47;100.00
54882;BME280;40775;51.448;4.742;2023-04-08T09:55:04;102500.72;;;12.52;100.00
54882;BME280;40775;51.448;4.742;2023-04-08T09:57:40;102510.31;;;12.50;100.00
54882;BME280;40775;51.448;4.742;2023-04-08T10:00:14;102502.75;;;12.59;100.00
54882;BME280;40775;51.448;4.742;2023-04-08T10:05:46;102499.38;;;12.61;100.00
54882;BME280;40775;51.448;4.742;2023-04-08T10:08:14;102500.06;;;12.57;100.00
54882;BME280;40775;51.448;4.742;2023-04-08T10:10:42;102489.13;;;12.69;100.00
54882;BME280;40775;51.448;4.742;2023-04-08T10:13:12;102502.59;;;13.00;100.00
54882;BME280;40775;51.448;4.742;2023-04-08T10:15:40;102497.69;;;12.87;100.00
54882;BME280;40775;51.448;4.742;2023-04-08T10:23:03;102502.91;;;13.10;100.00
54882;BME280;40775;51.448;4.742;2023-04-08T10:30:55;102501.63;;;13.21;100.00
54882;BME280;40775;51.448;4.742;2023-04-08T10:36:07;102506.09;;;13.23;100.00
54882;BME280;40775;51.448;4.742;2023-04-08T10:38:37;102502.84;;;13.30;100.00
54882;BME280;40775;51.448;4.742;2023-04-08T10:41:05;102509.22;;;13.37;100.00
54882;BME280;40775;51.448;4.742;2023-04-08T10:43:36;102498.97;;;13.45;100.00
54882;BME280;40775;51.448;4.742;2023-04-08T10:46:03;102505.75;;;13.64;100.00
54882;BME280;40775;51.448;4.742;2023-04-08T10:48:31;102494.34;;;13.65;100.00
54882;BME280;40775;51.448;4.742;2023-04-08T10:51:00;102500.75;;;13.71;100.00
54882;BME280;40775;51.448;4.742;2023-04-08T10:53:33;102492.63;;;13.92;100.00
54882;BME280;40775;51.448;4.742;2023-04-08T10:56:11;102496.34;;;13.97;100.00
54882;BME280;40775;51.448;4.742;2023-04-08T10:58:54;102502.94;;;13.84;100.00
54882;BME280;40775;51.448;4.742;2023-04-08T11:01:22;102499.97;;;13.74;100.00
54882;BME280;40775;51.448;4.742;2023-04-08T11:03:49;102501.72;;;13.73;100.00
54882;BME280;40775;51.448;4.742;2023-04-08T11:06:17;102502.41;;;13.69;100.00
54882;BME280;40775;51.448;4.742;2023-04-08T11:08:45;102500.97;;;13.77;100.00
54882;BME280;40775;51.448;4.742;2023-04-08T11:11:13;102507.47;;;13.88;100.00
54882;BME280;40775;51.448;4.742;2023-04-08T11:13:44;102502.63;;;14.01;100.00
54882;BME280;40775;51.448;4.742;2023-04-08T11:16:20;102502.97;;;14.11;100.00
54882;BME280;40775;51.448;4.742;2023-04-08T11:18:50;102497.47;;;14.32;100.00
54882;BME280;40775;51.448;4.742;2023-04-08T11:21:17;102496.81;;;14.39;100.00
54882;BME280;40775;51.448;4.742;2023-04-08T11:23:44;102496.13;;;14.18;100.00
54882;BME280;40775;51.448;4.742;2023-04-08T11:26:11;102488.50;;;14.27;100.00
54882;BME280;40775;51.448;4.742;2023-04-08T11:28:39;102498.81;;;14.46;100.00
54882;BME280;40775;51.448;4.742;2023-04-08T11:31:06;102491.53;;;14.39;100.00
54882;BME280;40775;51.448;4.742;2023-04-08T11:33:34;102493.63;;;14.49;100.00
54882;BME280;40775;51.448;4.742;2023-04-08T11:36:02;102493.22;;;14.37;100.00
54882;BME280;40775;51.448;4.742;2023-04-08T11:38:30;102485.69;;;14.49;100.00
54882;BME280;40775;51.448;4.742;2023-04-08T11:40:58;102493.44;;;14.43;100.00
54882;BME280;40775;51.448;4.742;2023-04-08T11:43:26;102490.53;;;14.63;100.00
54882;BME280;40775;51.448;4.742;2023-04-08T11:45:54;102497.91;;;14.74;100.00
54882;BME280;40775;51.448;4.742;2023-04-08T11:48:21;102489.41;;;14.84;100.00
54882;BME280;40775;51.448;4.742;2023-04-08T11:51:05;102486.03;;;14.90;100.00
54882;BME280;40775;51.448;4.742;2023-04-08T11:53:36;102473.63;;;15.19;100.00
54882;BME280;40775;51.448;4.742;2023-04-08T11:56:17;102472.75;;;14.87;100.00
54882;BME280;40775;51.448;4.742;2023-04-08T11:58:44;102478.84;;;14.84;100.00
54882;BME280;40775;51.448;4.742;2023-04-08T12:01:12;102467.03;;;15.35;100.00
54882;BME280;40775;51.448;4.742;2023-04-08T12:03:59;102473.75;;;15.24;100.00
54882;BME280;40775;51.448;4.742;2023-04-08T12:06:28;102469.34;;;15.24;100.00
54882;BME280;40775;51.448;4.742;2023-04-08T12:08:55;102478.34;;;15.31;100.00
54882;BME280;40775;51.448;4.742;2023-04-08T12:11:23;102470.16;;;15.22;100.00
54882;BME280;40775;51.448;4.742;2023-04-08T12:13:50;102475.88;;;15.05;100.00
54882;BME280;40775;51.448;4.742;2023-04-08T12:16:19;102464.25;;;15.32;100.00
54882;BME280;40775;51.448;4.742;2023-04-08T12:18:46;102460.88;;;15.69;100.00
54882;BME280;40775;51.448;4.742;2023-04-08T12:21:13;102462.81;;;15.76;100.00
54882;BME280;40775;51.448;4.742;2023-04-08T12:23:41;102453.91;;;15.72;100.00
54882;BME280;40775;51.448;4.742;2023-04-08T12:26:08;102452.06;;;16.06;100.00
54882;BME280;40775;51.448;4.742;2023-04-08T12:28:35;102458.53;;;16.17;100.00
54882;BME280;40775;51.448;4.742;2023-04-08T12:31:02;102456.41;;;16.02;100.00
54882;BME280;40775;51.448;4.742;2023-04-08T12:33:30;102453.06;;;16.11;100.00
54882;BME280;40775;51.448;4.742;2023-04-08T12:35:57;102454.50;;;15.97;100.00
54882;BME280;40775;51.448;4.742;2023-04-08T12:38:25;102453.25;;;16.19;100.00
54882;BME280;40775;51.448;4.742;2023-04-08T12:40:53;102445.53;;;16.68;100.00
54882;BME280;40775;51.448;4.742;2023-04-08T12:43:21;102449.38;;;16.83;100.00
54882;BME280;40775;51.448;4.742;2023-04-08T12:45:49;102440.53;;;16.82;100.00
54882;BME280;40775;51.448;4.742;2023-04-08T12:48:17;102445.88;;;16.85;100.00
54882;BME280;40775;51.448;4.742;2023-04-08T12:50:44;102437.22;;;16.14;100.00
54882;BME280;40775;51.448;4.742;2023-04-08T12:53:11;102436.00;;;16.77;100.00
54882;BME280;40775;51.448;4.742;2023-04-08T12:55:38;102431.06;;;16.96;100.00
54882;BME280;40775;51.448;4.742;2023-04-08T12:58:05;102431.22;;;16.62;100.00
54882;BME280;40775;51.448;4.742;2023-04-08T13:00:32;102431.91;;;16.94;100.00
54882;BME280;40775;51.448;4.742;2023-04-08T13:02:59;102430.94;;;16.90;100.00
54882;BME280;40775;51.448;4.742;2023-04-08T13:05:27;102424.22;;;17.08;100.00
54882;BME280;40775;51.448;4.742;2023-04-08T13:08:09;102426.81;;;17.05;100.00
54882;BME280;40775;51.448;4.742;2023-04-08T13:10:37;102418.53;;;17.36;100.00
54882;BME280;40775;51.448;4.742;2023-04-08T13:13:04;102431.84;;;16.91;100.00
54882;BME280;40775;51.448;4.742;2023-04-08T13:15:32;102422.84;;;17.28;100.00